Time;durP1;ratioP1;P1;durP2;ratioP2;P2;SDS_P1;SDS_P2;PMS_P1;PMS_P2;Temp;Humidity;BMP_temperature;BMP_pressure;BME280_temperature;BME280_humidity;BME280_pressure;Samples;Min_cycle;Max_cycle;Signal;HPM_P1;HPM_P2
2021/10/31 00:01:42;;;;;;;15.10;13.80;;;10.50;99.90;;;;;;5010875;28;20668;-96
2021/10/31 00:04:11;;;;;;;14.67;13.27;;;10.50;99.90;;;;;;5002413;28;20635;-96
2021/10/31 00:06:58;;;;;;;13.33;12.20;;;10.60;99.90;;;;;;5003348;28;20641;-96
2021/10/31 00:09:29;;;;;;;14.67;13.37;;;10.50;99.90;;;;;;5001378;28;20632;-96
2021/10/31 00:11:56;;;;;;;14.30;13.00;;;10.50;99.90;;;;;;5010464;28;20633;-96
2021/10/31 00:14:27;;;;;;;14.53;13.17;;;10.40;99.90;;;;;;5012736;28;20668;-96
2021/10/31 00:16:58;;;;;;;15.07;13.67;;;10.40;99.90;;;;;;5013886;28;20632;-96
2021/10/31 00:19:30;;;;;;;14.07;12.87;;;10.50;99.90;;;;;;5009142;28;20640;-96
2021/10/31 00:21:58;;;;;;;14.23;12.83;;;10.30;99.90;;;;;;5009835;28;20624;-96
2021/10/31 00:24:28;;;;;;;13.83;12.63;;;10.30;99.90;;;;;;5006408;28;20648;-96
2021/10/31 00:26:55;;;;;;;14.03;12.90;;;10.40;99.90;;;;;;5001171;28;20738;-96
2021/10/31 00:29:23;;;;;;;14.47;13.17;;;10.40;99.90;;;;;;5008840;28;20663;-95
2021/10/31 00:31:50;;;;;;;14.50;13.27;;;10.40;99.90;;;;;;5001801;28;20637;-96
2021/10/31 00:37:19;;;;;;;14.13;13.00;;;10.40;99.90;;;;;;5013890;28;20627;-96
2021/10/31 00:39:55;;;;;;;14.87;13.57;;;10.40;99.90;;;;;;5004054;28;20652;-96
2021/10/31 00:42:22;;;;;;;13.97;12.87;;;10.40;99.90;;;;;;5005096;28;20740;-95
2021/10/31 00:44:50;;;;;;;16.83;15.33;;;10.40;99.90;;;;;;5009040;28;20652;-96
2021/10/31 00:47:25;;;;;;;15.77;14.33;;;10.30;99.90;;;;;;5011457;28;20652;-96
2021/10/31 00:49:55;;;;;;;15.17;13.73;;;10.30;99.90;;;;;;5005722;28;20759;-96
2021/10/31 00:52:30;;;;;;;15.03;13.70;;;10.30;99.90;;;;;;5004769;28;20636;-96
2021/10/31 00:55:02;;;;;;;15.23;13.83;;;10.40;99.90;;;;;;5008314;28;20663;-95
2021/10/31 00:57:41;;;;;;;13.33;12.03;;;10.40;99.90;;;;;;4993431;28;21088;-95
2021/10/31 01:00:17;;;;;;;14.77;13.27;;;10.40;99.90;;;;;;5003293;28;20636;-96
2021/10/31 01:02:45;;;;;;;14.70;13.50;;;10.30;99.90;;;;;;5003607;28;20640;-96
2021/10/31 01:05:17;;;;;;;13.50;12.40;;;10.10;99.90;;;;;;5000582;28;20660;-96
2021/10/31 01:08:16;;;;;;;14.10;12.90;;;10.10;99.90;;;;;;5002522;28;20668;-96
2021/10/31 01:11:03;;;;;;;13.30;12.20;;;10.10;99.90;;;;;;4999352;28;20675;-96
2021/10/31 01:13:47;;;;;;;13.77;12.47;;;10.00;99.90;;;;;;4999099;28;21190;-95
2021/10/31 01:16:42;;;;;;;13.00;11.93;;;10.00;99.90;;;;;;4999439;28;21237;-96
2021/10/31 01:19:44;;;;;;;13.37;12.17;;;9.90;99.90;;;;;;5002214;28;20882;-96
2021/10/31 01:22:26;;;;;;;13.53;12.40;;;9.80;99.90;;;;;;4993858;28;20628;-96
2021/10/31 01:25:20;;;;;;;13.27;12.17;;;9.70;99.90;;;;;;5006880;28;20723;-96
2021/10/31 01:28:00;;;;;;;12.33;11.37;;;9.60;99.90;;;;;;5005093;28;20648;-96
2021/10/31 01:30:37;;;;;;;12.27;11.13;;;9.50;99.90;;;;;;5003221;28;20687;-95
2021/10/31 01:33:13;;;;;;;12.53;11.43;;;9.50;99.90;;;;;;4995405;28;20639;-96
2021/10/31 01:36:06;;;;;;;12.90;10.30;;;9.40;99.90;;;;;;5010751;28;20680;-96
2021/10/31 01:38:46;;;;;;;13.13;11.93;;;9.30;99.90;;;;;;5012675;28;20628;-96
2021/10/31 01:41:33;;;;;;;11.37;10.47;;;9.30;99.90;;;;;;5019317;28;20644;-96
2021/10/31 01:44:05;;;;;;;10.70;9.77;;;9.20;99.90;;;;;;5007639;28;21140;-96
2021/10/31 01:46:38;;;;;;;10.40;9.60;;;9.10;99.90;;;;;;5010445;28;20660;-96
2021/10/31 01:49:15;;;;;;;11.30;10.40;;;9.20;99.90;;;;;;5005028;28;20637;-96
2021/10/31 01:51:52;;;;;;;11.87;10.93;;;9.20;99.90;;;;;;5002794;28;20735;-96
2021/10/31 01:54:31;;;;;;;11.47;10.47;;;9.20;99.90;;;;;;5026017;28;20660;-96
2021/10/31 01:57:12;;;;;;;11.27;10.37;;;9.20;99.90;;;;;;5019469;28;20609;-96
2021/10/31 01:59:45;;;;;;;11.53;10.33;;;9.30;99.90;;;;;;5005765;28;20724;-96
2021/10/31 02:02:15;;;;;;;10.90;10.07;;;9.20;99.90;;;;;;5029717;28;20623;-96
2021/10/31 02:04:54;;;;;;;11.23;10.53;;;9.20;99.90;;;;;;5022699;28;20600;-96
2021/10/31 02:07:22;;;;;;;12.20;11.20;;;9.20;99.90;;;;;;5020837;28;20629;-96
2021/10/31 02:12:51;;;;;;;10.80;10.00;;;9.00;99.90;;;;;;5011027;28;21081;-95
2021/10/31 02:15:20;;;;;;;10.07;9.27;;;9.00;99.90;;;;;;5013204;28;20675;-96
2021/10/31 02:17:56;;;;;;;10.50;9.70;;;8.90;99.90;;;;;;5010898;28;20640;-96
2021/10/31 02:20:25;;;;;;;10.90;10.10;;;9.00;99.90;;;;;;5009384;28;20687;-96
2021/10/31 02:22:57;;;;;;;9.63;8.93;;;9.00;99.90;;;;;;5007280;28;20644;-96
2021/10/31 02:25:27;;;;;;;9.97;9.07;;;8.90;99.90;;;;;;4991844;28;20639;-96
2021/10/31 02:27:59;;;;;;;10.80;10.00;;;8.90;99.90;;;;;;5005204;28;21094;-95
2021/10/31 02:30:33;;;;;;;9.40;8.70;;;8.90;99.90;;;;;;4999781;28;20656;-96
2021/10/31 02:33:02;;;;;;;9.07;8.37;;;8.90;99.90;;;;;;5002619;28;20634;-95
2021/10/31 02:35:31;;;;;;;8.57;7.87;;;8.80;99.90;;;;;;5015103;28;20759;-96
2021/10/31 02:38:00;;;;;;;8.17;7.37;;;8.90;99.90;;;;;;5022559;28;20748;-95
2021/10/31 02:40:35;;;;;;;8.50;7.80;;;8.90;99.90;;;;;;5005798;28;20681;-95
2021/10/31 02:43:05;;;;;;;8.07;7.47;;;8.80;99.90;;;;;;5003771;28;20647;-95
2021/10/31 02:45:38;;;;;;;11.20;7.67;;;8.80;99.90;;;;;;5008362;28;20656;-96
2021/10/31 02:48:09;;;;;;;7.43;6.83;;;8.90;99.90;;;;;;5004520;28;20727;-96
2021/10/31 02:50:40;;;;;;;6.73;6.23;;;8.70;99.90;;;;;;5003399;28;20691;-95
2021/10/31 02:53:19;;;;;;;7.50;6.90;;;8.60;99.90;;;;;;4983890;28;20640;-95
2021/10/31 02:56:07;;;;;;;8.00;7.20;;;8.70;99.90;;;;;;4974930;28;20656;-95
2021/10/31 02:58:42;;;;;;;7.77;7.27;;;8.70;99.90;;;;;;4986689;28;20732;-96
2021/10/31 03:01:18;;;;;;;10.03;9.23;;;8.70;99.90;;;;;;4982792;28;20733;-96
2021/10/31 03:03:46;;;;;;;10.13;9.33;;;8.80;99.90;;;;;;4983647;28;20656;-96
2021/10/31 03:06:32;;;;;;;9.93;9.13;;;8.80;99.90;;;;;;4987139;28;20645;-96
2021/10/31 03:09:02;;;;;;;11.40;10.40;;;8.90;99.90;;;;;;4997864;28;20978;-95
2021/10/31 03:11:34;;;;;;;8.83;8.13;;;9.10;99.90;;;;;;4985150;28;20653;-95
2021/10/31 03:14:01;;;;;;;9.00;8.30;;;9.00;99.90;;;;;;4990358;28;20653;-95
2021/10/31 03:16:29;;;;;;;7.63;7.03;;;8.90;99.90;;;;;;5002088;28;20653;-96
2021/10/31 03:18:57;;;;;;;8.80;8.00;;;8.90;99.90;;;;;;5000820;28;20637;-94
2021/10/31 03:21:27;;;;;;;11.07;10.00;;;8.90;99.90;;;;;;4997222;28;20684;-95
2021/10/31 03:23:54;;;;;;;10.10;9.17;;;9.00;99.90;;;;;;4986724;28;20634;-96
2021/10/31 03:26:24;;;;;;;10.53;9.60;;;9.00;99.90;;;;;;4984972;28;20654;-95
2021/10/31 03:28:52;;;;;;;10.70;9.70;;;9.00;99.90;;;;;;4994870;28;20630;-96
2021/10/31 03:31:19;;;;;;;9.50;8.50;;;9.00;99.90;;;;;;4993242;28;20692;-95
2021/10/31 03:33:46;;;;;;;8.87;8.10;;;9.00;99.90;;;;;;4975800;28;20665;-94
2021/10/31 03:36:14;;;;;;;9.67;7.17;;;9.00;99.90;;;;;;4975374;28;20668;-95
2021/10/31 03:38:47;;;;;;;8.20;7.60;;;9.00;99.90;;;;;;4975461;28;20665;-96
2021/10/31 03:41:18;;;;;;;7.70;7.13;;;8.90;99.90;;;;;;4979301;28;20660;-95
2021/10/31 03:43:47;;;;;;;7.20;6.70;;;8.90;99.90;;;;;;4972125;28;20637;-95
2021/10/31 03:46:16;;;;;;;7.50;6.60;;;8.90;99.90;;;;;;4975073;28;20672;-95
2021/10/31 03:48:44;;;;;;;7.37;6.67;;;8.90;99.90;;;;;;4979380;28;20666;-95
2021/10/31 03:51:21;;;;;;;7.20;6.60;;;8.90;99.90;;;;;;4978307;28;20756;-95
2021/10/31 03:53:48;;;;;;;7.70;7.10;;;8.90;99.90;;;;;;4980525;28;20636;-95
2021/10/31 03:56:16;;;;;;;8.57;7.87;;;8.90;99.90;;;;;;4974717;28;20666;-95
2021/10/31 03:58:47;;;;;;;9.60;8.90;;;8.90;99.90;;;;;;4966874;28;20641;-95
2021/10/31 04:01:15;;;;;;;8.33;7.73;;;8.90;99.90;;;;;;4972549;28;20696;-96
2021/10/31 04:03:48;;;;;;;9.83;8.93;;;8.80;99.90;;;;;;4984518;28;21043;-95
2021/10/31 04:06:15;;;;;;;8.93;8.13;;;8.90;99.90;;;;;;4975673;28;20661;-96
2021/10/31 04:08:58;;;;;;;8.13;7.43;;;8.70;99.90;;;;;;4977641;28;20752;-94
2021/10/31 04:11:33;;;;;;;9.33;8.53;;;8.70;99.90;;;;;;4976042;28;20668;-95
2021/10/31 04:14:06;;;;;;;8.67;8.00;;;8.70;99.90;;;;;;4978205;28;21001;-95
2021/10/31 04:16:36;;;;;;;7.87;7.27;;;8.70;99.90;;;;;;4972666;28;20685;-95
2021/10/31 04:19:04;;;;;;;8.63;7.93;;;8.60;99.90;;;;;;4981254;28;21046;-96
2021/10/31 04:21:36;;;;;;;8.43;7.83;;;8.60;99.90;;;;;;4972007;28;20665;-96
2021/10/31 04:24:03;;;;;;;9.27;8.53;;;8.60;99.90;;;;;;4977410;28;20788;-96
2021/10/31 04:26:33;;;;;;;6.93;6.43;;;8.60;99.90;;;;;;4979989;28;20640;-96
2021/10/31 04:29:09;;;;;;;7.23;6.73;;;8.40;99.90;;;;;;4976431;28;20633;-96
2021/10/31 04:31:41;;;;;;;7.50;7.00;;;8.50;99.90;;;;;;4989847;28;20633;-95
2021/10/31 04:34:09;;;;;;;9.60;8.70;;;8.60;99.90;;;;;;4987204;28;20941;-95
2021/10/31 04:36:38;;;;;;;8.67;8.00;;;8.50;99.90;;;;;;4976829;28;20664;-96
2021/10/31 04:39:06;;;;;;;10.50;9.60;;;8.40;99.90;;;;;;4974167;28;20628;-96
2021/10/31 04:41:34;;;;;;;11.07;10.20;;;8.40;99.90;;;;;;4979211;28;20704;-96
2021/10/31 04:44:01;;;;;;;9.40;8.60;;;8.50;99.90;;;;;;4974439;28;20658;-96
2021/10/31 04:46:30;;;;;;;10.53;9.67;;;8.50;99.90;;;;;;4977089;28;21192;-96
2021/10/31 04:48:57;;;;;;;9.50;8.70;;;8.40;99.90;;;;;;4982075;28;20645;-95
2021/10/31 04:51:24;;;;;;;9.13;8.50;;;8.40;99.90;;;;;;4979122;28;20692;-95
2021/10/31 04:53:53;;;;;;;8.83;8.23;;;8.40;99.90;;;;;;4979392;28;20644;-95
2021/10/31 04:56:23;;;;;;;9.10;8.33;;;8.40;99.90;;;;;;4973980;28;20708;-95
2021/10/31 04:58:55;;;;;;;8.27;7.57;;;8.40;99.90;;;;;;4974843;28;20665;-95
2021/10/31 05:01:24;;;;;;;8.20;7.60;;;8.40;99.90;;;;;;4994178;28;20664;-95
2021/10/31 05:03:55;;;;;;;8.47;7.77;;;8.40;99.90;;;;;;4995241;28;20656;-95
2021/10/31 05:06:22;;;;;;;9.93;9.03;;;8.40;99.90;;;;;;4983238;28;20654;-96
2021/10/31 05:08:50;;;;;;;7.70;7.20;;;8.40;99.90;;;;;;4981531;28;20629;-95
2021/10/31 05:11:17;;;;;;;8.27;7.57;;;8.50;99.90;;;;;;4979548;28;20661;-96
2021/10/31 05:13:45;;;;;;;8.63;7.77;;;8.50;99.90;;;;;;4981658;28;20629;-95
2021/10/31 05:16:14;;;;;;;8.70;7.97;;;8.50;99.90;;;;;;4989594;28;20759;-96
2021/10/31 05:18:41;;;;;;;9.67;8.97;;;8.50;99.90;;;;;;4988358;28;20634;-96
2021/10/31 05:21:10;;;;;;;10.03;9.20;;;8.50;99.90;;;;;;5004609;28;20650;-96
2021/10/31 05:23:38;;;;;;;9.80;9.00;;;8.50;99.90;;;;;;4987987;28;20637;-96
2021/10/31 05:26:05;;;;;;;8.80;8.10;;;8.60;99.90;;;;;;4993070;28;20668;-96
2021/10/31 05:28:32;;;;;;;8.43;7.83;;;8.70;99.90;;;;;;4981332;28;20729;-96
2021/10/31 05:31:01;;;;;;;9.23;8.43;;;8.60;99.90;;;;;;4973730;28;20672;-96
2021/10/31 05:33:30;;;;;;;8.90;8.23;;;8.60;99.90;;;;;;4988919;28;20743;-95
2021/10/31 05:35:58;;;;;;;9.20;8.30;;;8.60;99.90;;;;;;4991571;28;20737;-96
2021/10/31 05:38:36;;;;;;;9.97;9.07;;;8.60;99.90;;;;;;4986787;28;20641;-96
2021/10/31 05:41:04;;;;;;;9.33;8.57;;;8.60;99.90;;;;;;4987167;28;20640;-96
2021/10/31 05:43:34;;;;;;;9.30;8.60;;;8.40;99.90;;;;;;4978812;28;20640;-96
2021/10/31 05:46:06;;;;;;;9.27;8.57;;;8.30;99.90;;;;;;4991160;28;20787;-96
2021/10/31 05:48:34;;;;;;;8.10;7.50;;;8.20;99.90;;;;;;5004986;28;20637;-95
2021/10/31 05:51:01;;;;;;;9.77;8.97;;;8.30;99.90;;;;;;4999484;28;20903;-96
2021/10/31 05:53:31;;;;;;;9.27;8.57;;;8.40;99.90;;;;;;4996457;28;20654;-95
2021/10/31 05:55:58;;;;;;;8.40;7.80;;;8.40;99.90;;;;;;4999360;28;20636;-95
2021/10/31 05:58:26;;;;;;;8.70;8.00;;;8.40;99.90;;;;;;4992439;28;20653;-96
2021/10/31 06:00:59;;;;;;;9.00;8.23;;;8.50;99.90;;;;;;4983828;28;20660;-96
2021/10/31 06:03:26;;;;;;;9.03;8.33;;;8.40;99.90;;;;;;4980377;28;20645;-96
2021/10/31 06:05:54;;;;;;;9.63;7.90;;;8.40;99.90;;;;;;4983965;28;20798;-96
2021/10/31 06:08:36;;;;;;;7.77;7.17;;;8.40;99.90;;;;;;4989208;28;20638;-94
2021/10/31 06:11:04;;;;;;;9.30;8.50;;;8.50;99.90;;;;;;4997433;28;20649;-94
2021/10/31 06:13:32;;;;;;;8.60;8.00;;;8.50;99.90;;;;;;4995016;28;20821;-95
2021/10/31 06:15:59;;;;;;;9.70;8.90;;;8.50;99.90;;;;;;4999524;28;20646;-95
2021/10/31 06:18:27;;;;;;;8.83;8.10;;;8.50;99.90;;;;;;5004442;28;20656;-95
2021/10/31 06:20:57;;;;;;;7.83;7.23;;;8.50;99.90;;;;;;4998171;28;20661;-94
2021/10/31 06:23:26;;;;;;;9.77;8.97;;;8.60;99.90;;;;;;4997438;28;20637;-96
2021/10/31 06:25:56;;;;;;;9.07;8.40;;;8.60;99.90;;;;;;4985389;28;20637;-96
2021/10/31 06:28:27;;;;;;;10.20;9.47;;;8.40;99.90;;;;;;4984118;28;20644;-96
2021/10/31 06:30:56;;;;;;;9.70;8.90;;;8.40;99.90;;;;;;4982192;28;20657;-95
2021/10/31 06:36:11;;;;;;;15.20;13.97;;;8.50;99.90;;;;;;4988890;28;20688;-95
2021/10/31 06:38:39;;;;;;;15.67;14.47;;;8.60;99.90;;;;;;4976736;28;20650;-96
2021/10/31 06:41:09;;;;;;;15.37;14.07;;;8.60;99.90;;;;;;4982650;28;20654;-96
2021/10/31 06:43:48;;;;;;;13.80;12.80;;;8.60;99.90;;;;;;4984457;28;20637;-96
2021/10/31 06:46:16;;;;;;;11.97;10.93;;;8.60;99.90;;;;;;4983048;28;21155;-96
2021/10/31 06:48:45;;;;;;;11.57;10.77;;;8.60;99.90;;;;;;4987215;28;20645;-95
2021/10/31 06:51:12;;;;;;;11.50;10.40;;;8.60;99.90;;;;;;4985892;28;21061;-96
2021/10/31 06:53:45;;;;;;;13.73;12.63;;;8.70;99.90;;;;;;4988551;28;20641;-96
2021/10/31 06:56:15;;;;;;;12.33;11.33;;;8.80;99.90;;;;;;4985318;28;20652;-96
2021/10/31 06:58:44;;;;;;;11.63;10.73;;;8.90;99.90;;;;;;4978745;28;20638;-96
2021/10/31 07:01:12;;;;;;;11.07;10.23;;;8.90;99.90;;;;;;4974404;28;20653;-95
2021/10/31 07:03:49;;;;;;;11.03;10.23;;;9.00;99.90;;;;;;4991980;28;20704;-96
2021/10/31 07:06:21;;;;;;;10.70;9.90;;;9.10;99.90;;;;;;4990805;28;20641;-96
2021/10/31 07:08:52;;;;;;;10.90;10.10;;;9.20;99.90;;;;;;4987587;28;20622;-95
2021/10/31 07:11:28;;;;;;;11.37;10.33;;;9.40;99.90;;;;;;4997667;28;20657;-95
2021/10/31 07:14:04;;;;;;;10.47;9.53;;;9.50;99.90;;;;;;4985958;28;20656;-94
2021/10/31 07:16:34;;;;;;;11.77;10.87;;;9.70;99.90;;;;;;4988142;28;20672;-96
2021/10/31 07:19:14;;;;;;;11.67;10.83;;;9.80;99.90;;;;;;4983338;28;20692;-96
2021/10/31 07:21:55;;;;;;;12.20;11.17;;;9.80;99.90;;;;;;4993413;28;21175;-96
2021/10/31 07:24:26;;;;;;;10.53;9.70;;;9.90;99.90;;;;;;4991918;28;20636;-96
2021/10/31 07:26:56;;;;;;;11.80;10.80;;;10.00;99.90;;;;;;5005163;28;20727;-96
2021/10/31 07:29:37;;;;;;;11.60;10.70;;;10.10;99.90;;;;;;4985872;28;20637;-95
2021/10/31 07:32:07;;;;;;;14.50;13.30;;;10.10;99.90;;;;;;4984829;28;20645;-96
2021/10/31 07:37:57;;;;;;;12.30;11.30;;;10.10;99.90;;;;;;4984931;28;20653;-96
2021/10/31 07:40:30;;;;;;;14.70;13.50;;;10.20;99.90;;;;;;4978951;28;20660;-96
2021/10/31 07:43:20;;;;;;;12.20;11.20;;;10.10;99.90;;;;;;4963757;28;20638;-96
2021/10/31 07:46:17;;;;;;;11.40;10.40;;;10.20;99.90;;;;;;4982629;28;20634;-96
2021/10/31 07:48:55;;;;;;;12.20;11.20;;;10.30;99.90;;;;;;4978803;28;21184;-96
2021/10/31 07:51:51;;;;;;;12.87;11.80;;;10.30;99.90;;;;;;4987988;28;20656;-95
2021/10/31 07:54:53;;;;;;;13.33;12.23;;;10.40;99.90;;;;;;4989519;28;20633;-96
2021/10/31 07:57:23;;;;;;;12.20;11.10;;;10.50;99.90;;;;;;4973470;28;20680;-96
2021/10/31 08:03:23;;;;;;;11.87;10.80;;;10.80;99.90;;;;;;4985539;28;20602;-95
2021/10/31 08:06:28;;;;;;;10.83;9.93;;;11.00;99.90;;;;;;4992224;28;20629;-96
2021/10/31 08:09:01;;;;;;;13.97;12.83;;;11.20;99.90;;;;;;5000404;28;20628;-96
2021/10/31 08:58:45;;;;;;;9.30;8.50;;;11.80;99.90;;;;;;5069478;23;20696;-96
2021/10/31 09:04:18;;;;;;;9.43;8.63;;;11.80;99.90;;;;;;4998671;28;20614;-96
2021/10/31 09:07:14;;;;;;;8.77;7.93;;;11.80;99.90;;;;;;4998372;28;20636;-96
2021/10/31 09:10:00;;;;;;;8.60;8.00;;;11.90;99.90;;;;;;5003741;28;20648;-95
2021/10/31 09:13:18;;;;;;;8.63;7.90;;;12.20;99.90;;;;;;4992960;28;20690;-96
2021/10/31 09:18:37;;;;;;;8.43;7.77;;;12.60;99.90;;;;;;4998242;28;20689;-96
2021/10/31 09:21:28;;;;;;;8.80;8.00;;;12.90;99.90;;;;;;4998403;28;20646;-96
2021/10/31 09:27:36;;;;;;;7.90;7.27;;;13.40;99.90;;;;;;5007675;28;20613;-96
2021/10/31 09:30:18;;;;;;;8.00;7.30;;;13.60;99.90;;;;;;4999297;28;20701;-96
2021/10/31 09:33:29;;;;;;;7.90;7.30;;;13.90;99.90;;;;;;4998473;28;20646;-96
2021/10/31 09:36:03;;;;;;;7.80;7.13;;;14.30;99.90;;;;;;4998551;28;20622;-95
2021/10/31 09:51:36;;;;;;;8.10;7.50;;;15.60;99.90;;;;;;4996998;28;20621;-96
2021/10/31 09:57:25;;;;;;;7.27;6.57;;;16.20;99.90;;;;;;5012857;28;20648;-96
2021/10/31 11:45:53;;;;;;;3.93;3.60;;;24.30;91.20;;;;;;5861276;23;20575;-94
2021/10/31 16:30:18;;;;;;;3.50;3.20;;;15.20;99.90;;;;;;5102996;23;20673;-96
2021/10/31 18:01:32;;;;;;;4.23;3.93;;;12.60;99.90;;;;;;5005753;23;20688;-96
2021/10/31 18:07:28;;;;;;;4.40;3.80;;;12.60;99.90;;;;;;4989311;28;20637;-96
2021/10/31 18:09:57;;;;;;;3.70;3.40;;;12.50;99.90;;;;;;4992294;28;20776;-95
2021/10/31 18:24:36;;;;;;;6.60;6.10;;;12.20;99.90;;;;;;4979930;28;20630;-96
2021/10/31 18:32:58;;;;;;;8.07;7.37;;;12.00;99.90;;;;;;4989198;28;20616;-95
2021/10/31 18:38:12;;;;;;;6.20;5.60;;;12.00;99.90;;;;;;4998539;28;20645;-96
2021/10/31 18:41:14;;;;;;;8.57;7.90;;;11.90;99.90;;;;;;4983853;28;20644;-96
2021/10/31 18:44:21;;;;;;;8.30;7.40;;;11.80;99.90;;;;;;4995847;28;20633;-96
2021/10/31 18:50:06;;;;;;;7.40;6.70;;;11.80;99.90;;;;;;4969410;28;20737;-96
2021/10/31 18:58:11;;;;;;;8.20;7.60;;;11.60;99.90;;;;;;4976842;28;20644;-96
2021/10/31 19:00:40;;;;;;;7.67;7.07;;;11.50;99.90;;;;;;4981491;28;20666;-95
2021/10/31 19:03:37;;;;;;;7.33;6.70;;;11.50;99.90;;;;;;4996731;28;20649;-96
2021/10/31 19:09:47;;;;;;;6.90;6.40;;;11.40;99.90;;;;;;4981949;28;20651;-96
2021/10/31 19:12:27;;;;;;;7.43;6.80;;;11.40;99.90;;;;;;4982495;28;20708;-96
2021/10/31 19:14:55;;;;;;;6.77;6.17;;;11.40;99.90;;;;;;4959828;28;20685;-96
2021/10/31 19:17:23;;;;;;;6.70;6.20;;;11.50;99.90;;;;;;4969840;28;20638;-96
2021/10/31 19:19:58;;;;;;;9.70;6.27;;;11.60;99.90;;;;;;4963456;28;20745;-96
2021/10/31 19:22:30;;;;;;;7.80;7.10;;;11.50;99.90;;;;;;4962729;28;20668;-96
2021/10/31 19:25:00;;;;;;;7.63;6.87;;;11.30;99.90;;;;;;4978295;28;20632;-96
2021/10/31 19:27:32;;;;;;;7.67;7.07;;;11.30;99.90;;;;;;4965880;28;20730;-96
2021/10/31 19:30:15;;;;;;;7.40;6.70;;;11.20;99.90;;;;;;4976749;28;21234;-96
2021/10/31 19:32:49;;;;;;;7.30;6.70;;;11.20;99.90;;;;;;4963337;28;20660;-96
2021/10/31 19:35:19;;;;;;;7.57;7.00;;;11.20;99.90;;;;;;4962204;28;20645;-96
2021/10/31 19:38:06;;;;;;;7.10;6.50;;;11.10;99.90;;;;;;4956248;28;20665;-96
2021/10/31 19:40:51;;;;;;;8.90;7.10;;;11.10;99.90;;;;;;4962383;28;20666;-96
2021/10/31 19:43:20;;;;;;;7.20;6.50;;;11.10;99.90;;;;;;4958728;28;21234;-95
2021/10/31 19:45:47;;;;;;;8.77;8.07;;;11.10;99.90;;;;;;4952172;28;20742;-96
2021/10/31 19:48:24;;;;;;;7.13;6.47;;;11.10;99.90;;;;;;4974905;28;20622;-96
2021/10/31 19:50:54;;;;;;;6.77;6.20;;;11.00;99.90;;;;;;4957732;28;20630;-96
2021/10/31 19:53:38;;;;;;;6.53;5.80;;;10.90;99.90;;;;;;4965976;28;21303;-96
2021/10/31 19:56:11;;;;;;;7.10;6.50;;;10.90;99.90;;;;;;4962217;28;21325;-96
2021/10/31 19:58:43;;;;;;;7.13;6.53;;;10.90;99.90;;;;;;4971396;28;20700;-96
2021/10/31 20:01:20;;;;;;;8.40;7.70;;;10.80;99.90;;;;;;4963853;28;20668;-96
2021/10/31 20:03:48;;;;;;;9.17;8.47;;;10.80;99.90;;;;;;4966974;28;20623;-96
2021/10/31 20:06:30;;;;;;;6.60;6.03;;;10.70;99.90;;;;;;4974462;28;20623;-96
2021/10/31 20:08:58;;;;;;;7.10;6.60;;;10.70;99.90;;;;;;4971703;28;20658;-96
2021/10/31 20:11:29;;;;;;;6.20;5.70;;;10.70;99.90;;;;;;4963836;28;20634;-96
2021/10/31 20:14:03;;;;;;;7.03;6.43;;;10.80;99.90;;;;;;4966209;28;20635;-96
2021/10/31 20:16:31;;;;;;;6.13;5.60;;;10.70;99.90;;;;;;4974823;28;20641;-96
2021/10/31 20:19:08;;;;;;;7.70;7.00;;;10.70;99.90;;;;;;4969796;28;20674;-96
2021/10/31 20:27:17;;;;;;;8.00;6.80;;;10.70;99.90;;;;;;4981873;28;20666;-96
2021/10/31 20:29:50;;;;;;;7.37;6.70;;;10.70;99.90;;;;;;4978149;28;20662;-96
2021/10/31 20:32:19;;;;;;;6.53;6.10;;;10.60;99.90;;;;;;4970713;28;20633;-96
2021/10/31 20:37:31;;;;;;;7.27;6.67;;;10.60;99.90;;;;;;4963695;28;20635;-96
2021/10/31 20:40:00;;;;;;;6.50;5.90;;;10.60;99.90;;;;;;4942300;28;20672;-96
2021/10/31 20:42:44;;;;;;;6.63;6.03;;;10.60;99.90;;;;;;4978737;28;20650;-96
2021/10/31 20:45:15;;;;;;;6.93;6.43;;;10.60;99.90;;;;;;4981385;28;20666;-96
2021/10/31 20:47:49;;;;;;;10.03;6.77;;;10.50;99.90;;;;;;4971000;28;20634;-96
2021/10/31 20:50:21;;;;;;;6.77;6.27;;;10.50;99.90;;;;;;4966509;28;20669;-96
2021/10/31 20:53:03;;;;;;;6.83;6.10;;;10.50;99.90;;;;;;4967055;28;20673;-96
2021/10/31 20:55:36;;;;;;;6.40;5.90;;;10.40;99.90;;;;;;4968561;28;20637;-96
2021/10/31 20:58:11;;;;;;;5.53;5.03;;;10.50;99.90;;;;;;4964367;28;20697;-96
2021/10/31 21:00:43;;;;;;;6.93;6.33;;;10.40;99.90;;;;;;4974066;28;20645;-96
2021/10/31 21:03:10;;;;;;;6.80;6.30;;;10.40;99.90;;;;;;4962395;28;20697;-96
2021/10/31 21:05:40;;;;;;;6.83;6.23;;;10.50;99.90;;;;;;4968110;28;20641;-96
2021/10/31 21:08:12;;;;;;;13.33;11.97;;;10.40;99.90;;;;;;4962910;28;20633;-95
2021/10/31 21:10:45;;;;;;;9.07;8.33;;;10.40;99.90;;;;;;4955618;28;20635;-96
2021/10/31 21:13:32;;;;;;;8.00;7.37;;;10.50;99.90;;;;;;4962754;28;20622;-96
2021/10/31 21:16:03;;;;;;;8.17;7.47;;;10.50;99.90;;;;;;4954129;28;20669;-96
2021/10/31 21:18:37;;;;;;;8.00;7.23;;;10.50;99.90;;;;;;4960329;28;20689;-96
2021/10/31 21:21:08;;;;;;;7.00;6.50;;;10.50;99.90;;;;;;4959030;28;20758;-95
2021/10/31 21:23:40;;;;;;;7.27;6.40;;;10.50;99.90;;;;;;4960733;28;20649;-96
2021/10/31 21:26:07;;;;;;;6.93;6.33;;;10.50;99.90;;;;;;4964189;28;20642;-96
2021/10/31 21:28:38;;;;;;;7.83;7.23;;;10.40;99.90;;;;;;4961747;28;20664;-95
2021/10/31 21:31:07;;;;;;;7.10;6.50;;;10.40;99.90;;;;;;4952312;28;20670;-96
2021/10/31 21:33:34;;;;;;;5.60;5.10;;;10.40;99.90;;;;;;4961091;28;21392;-95
2021/10/31 21:36:16;;;;;;;6.47;5.63;;;10.40;99.90;;;;;;4962348;28;20627;-95
2021/10/31 21:38:44;;;;;;;5.90;5.40;;;10.30;99.90;;;;;;4959526;28;20733;-96
2021/10/31 21:41:32;;;;;;;7.23;5.33;;;10.20;99.90;;;;;;4968075;28;20636;-96
2021/10/31 21:44:12;;;;;;;4.57;4.27;;;10.20;99.90;;;;;;4961195;28;20625;-95
2021/10/31 21:46:41;;;;;;;5.33;4.93;;;10.30;99.90;;;;;;4966409;28;20645;-96
2021/10/31 21:49:09;;;;;;;6.13;5.47;;;10.20;99.90;;;;;;4962650;28;20741;-96
2021/10/31 21:51:38;;;;;;;5.50;4.97;;;10.20;99.90;;;;;;4965009;28;20680;-95
2021/10/31 21:54:06;;;;;;;5.83;5.43;;;10.10;99.90;;;;;;4983232;28;20654;-96
2021/10/31 21:56:33;;;;;;;5.77;5.27;;;10.10;99.90;;;;;;4979077;28;20628;-96
2021/10/31 21:59:20;;;;;;;6.33;5.83;;;10.10;99.90;;;;;;4971607;28;20677;-96
2021/10/31 22:01:50;;;;;;;5.70;5.20;;;10.10;99.90;;;;;;4967986;28;20650;-96
2021/10/31 22:04:27;;;;;;;5.70;5.20;;;10.10;99.90;;;;;;4961035;28;20642;-96
2021/10/31 22:06:58;;;;;;;6.67;6.00;;;10.10;99.90;;;;;;4970207;28;20736;-96
2021/10/31 22:09:25;;;;;;;6.00;5.40;;;10.20;99.90;;;;;;4972276;28;20681;-96
2021/10/31 22:12:01;;;;;;;6.53;6.03;;;10.20;99.90;;;;;;4981041;28;20622;-96
2021/10/31 22:17:11;;;;;;;7.40;6.27;;;10.40;99.90;;;;;;4977723;28;21154;-96
2021/10/31 22:19:39;;;;;;;6.63;6.13;;;10.50;99.90;;;;;;4970546;28;20703;-96
2021/10/31 22:22:07;;;;;;;6.57;6.07;;;10.50;99.90;;;;;;4972000;28;20733;-96
2021/10/31 22:24:36;;;;;;;7.00;6.50;;;10.50;99.90;;;;;;4970045;28;20666;-96
2021/10/31 22:27:04;;;;;;;7.40;6.80;;;10.70;99.90;;;;;;4967924;28;20646;-95
2021/10/31 22:29:32;;;;;;;6.77;6.30;;;10.70;99.90;;;;;;4963020;28;20700;-96
2021/10/31 22:32:08;;;;;;;7.20;6.70;;;10.80;99.90;;;;;;4961117;28;20634;-96
2021/10/31 22:34:35;;;;;;;7.57;6.97;;;10.90;99.90;;;;;;4965097;28;20667;-95
2021/10/31 22:37:05;;;;;;;8.27;7.50;;;10.90;99.90;;;;;;4984742;28;20649;-96
2021/10/31 22:39:46;;;;;;;8.43;7.63;;;10.90;99.90;;;;;;4979147;28;20680;-96
2021/10/31 22:42:13;;;;;;;8.33;7.63;;;10.90;99.90;;;;;;4980540;28;20628;-96
2021/10/31 22:44:42;;;;;;;8.10;7.30;;;11.00;99.90;;;;;;4979167;28;20662;-96
2021/10/31 22:47:10;;;;;;;7.60;6.80;;;11.00;99.90;;;;;;4978688;28;20621;-95
2021/10/31 22:49:38;;;;;;;8.00;7.30;;;11.10;99.90;;;;;;4969870;28;20645;-96
2021/10/31 22:52:06;;;;;;;8.00;7.17;;;11.10;99.90;;;;;;4963887;28;20634;-96
2021/10/31 22:54:33;;;;;;;6.83;6.23;;;11.10;99.90;;;;;;4966745;28;20725;-96
2021/10/31 22:57:01;;;;;;;7.33;6.73;;;11.20;99.90;;;;;;4974465;28;20664;-96
2021/10/31 22:59:28;;;;;;;9.07;6.50;;;11.20;99.90;;;;;;4963522;28;20769;-96
2021/10/31 23:02:03;;;;;;;6.83;6.23;;;11.10;99.90;;;;;;4957044;28;20653;-95
2021/10/31 23:04:34;;;;;;;7.80;6.53;;;11.20;99.90;;;;;;4957073;28;20650;-96
2021/10/31 23:07:13;;;;;;;6.97;6.37;;;11.30;99.90;;;;;;4964659;28;20633;-96
2021/10/31 23:09:41;;;;;;;6.17;5.70;;;11.30;99.90;;;;;;4961761;28;20665;-95
2021/10/31 23:12:09;;;;;;;6.87;6.40;;;11.20;99.90;;;;;;4959330;28;20638;-96
2021/10/31 23:14:36;;;;;;;7.33;6.57;;;11.30;99.90;;;;;;4963240;28;20732;-96
2021/10/31 23:17:08;;;;;;;6.13;5.63;;;11.20;99.90;;;;;;4975064;28;20637;-96
2021/10/31 23:19:35;;;;;;;9.00;8.20;;;11.20;99.90;;;;;;4978497;28;20673;-96
2021/10/31 23:22:07;;;;;;;8.20;7.50;;;11.10;99.90;;;;;;4970455;28;20698;-96
2021/10/31 23:24:34;;;;;;;8.20;7.60;;;11.10;99.90;;;;;;4961649;28;20641;-96
2021/10/31 23:27:01;;;;;;;7.97;7.23;;;11.10;99.90;;;;;;4962325;28;20669;-96
2021/10/31 23:29:28;;;;;;;7.87;6.83;;;11.10;99.90;;;;;;4967931;28;20637;-96